Time;durP1;ratioP1;P1;durP2;ratioP2;P2;SDS_P1;SDS_P2;PMS_P1;PMS_P2;Temp;Humidity;BMP_temperature;BMP_pressure;BME280_temperature;BME280_humidity;BME280_pressure;Samples;Min_cycle;Max_cycle;Signal;HPM_P1;HPM_P2
2023/07/09 00:00:51;;;;;;;9.10;6.78;;;23.00;96.20;;;;;;5080030;28;20386;-75
2023/07/09 00:03:19;;;;;;;9.25;7.38;;;23.00;96.20;;;;;;5090497;28;20032;-74
2023/07/09 00:05:47;;;;;;;9.23;6.72;;;23.00;96.30;;;;;;5090342;28;20040;-74
2023/07/09 00:08:27;;;;;;;10.85;6.82;;;22.90;96.50;;;;;;5080902;28;20149;-75
2023/07/09 00:10:54;;;;;;;10.50;6.85;;;22.90;96.70;;;;;;5090216;28;20079;-74
2023/07/09 00:13:21;;;;;;;9.32;6.32;;;22.80;96.80;;;;;;5090210;28;20043;-75
2023/07/09 00:15:47;;;;;;;8.85;6.72;;;22.80;97.10;;;;;;5090292;28;20055;-75
2023/07/09 00:18:15;;;;;;;10.82;6.93;;;22.70;97.40;;;;;;5090492;28;20355;-75
2023/07/09 00:20:43;;;;;;;9.65;6.63;;;22.70;97.90;;;;;;5074039;28;20396;-74
2023/07/09 00:23:09;;;;;;;12.35;7.38;;;22.60;98.10;;;;;;5089915;28;20110;-74
2023/07/09 00:25:35;;;;;;;9.23;6.90;;;22.60;98.40;;;;;;5090067;28;20039;-74
2023/07/09 00:28:02;;;;;;;11.57;7.05;;;22.50;98.80;;;;;;5090217;28;20498;-74
2023/07/09 00:30:27;;;;;;;9.52;6.97;;;22.50;98.80;;;;;;5090250;28;20040;-74
2023/07/09 00:32:54;;;;;;;8.70;7.65;;;22.40;99.10;;;;;;5088035;28;20039;-75
2023/07/09 00:35:20;;;;;;;8.10;6.30;;;22.40;99.40;;;;;;5082882;28;20048;-74
2023/07/09 00:37:47;;;;;;;9.77;6.72;;;22.30;99.70;;;;;;5089048;28;20537;-75
2023/07/09 00:40:20;;;;;;;9.20;6.82;;;22.30;99.90;;;;;;5088762;28;20032;-75
2023/07/09 00:42:54;;;;;;;10.15;7.13;;;22.30;99.90;;;;;;5071442;28;20090;-75
2023/07/09 00:45:24;;;;;;;10.48;6.95;;;22.30;99.90;;;;;;5083933;28;20036;-74
2023/07/09 00:48:06;;;;;;;9.48;7.30;;;22.20;99.90;;;;;;5076157;28;20438;-75
2023/07/09 00:50:41;;;;;;;8.52;7.10;;;22.20;99.90;;;;;;5089764;28;20511;-74
2023/07/09 00:53:31;;;;;;;12.25;7.03;;;22.20;99.90;;;;;;5089396;28;20032;-75
2023/07/09 00:56:09;;;;;;;9.88;7.18;;;22.20;99.90;;;;;;5088395;28;20044;-75
2023/07/09 00:58:36;;;;;;;9.52;6.63;;;22.10;99.90;;;;;;5089696;28;20035;-75
2023/07/09 01:01:05;;;;;;;9.90;7.53;;;22.20;99.90;;;;;;5089749;28;20078;-75
2023/07/09 01:03:42;;;;;;;9.93;7.38;;;22.20;99.90;;;;;;5072729;28;20036;-75
2023/07/09 01:06:08;;;;;;;9.02;6.95;;;22.10;99.90;;;;;;5084538;28;20037;-74
2023/07/09 01:08:36;;;;;;;9.55;6.78;;;22.10;99.90;;;;;;5070605;28;20035;-74
2023/07/09 01:11:01;;;;;;;8.95;6.78;;;22.00;99.90;;;;;;5076041;28;20036;-75
2023/07/09 01:13:28;;;;;;;12.77;6.93;;;22.00;99.90;;;;;;5093623;28;20040;-74
2023/07/09 01:15:55;;;;;;;12.57;7.15;;;22.00;99.90;;;;;;5093712;28;20044;-74
2023/07/09 01:18:21;;;;;;;7.88;6.78;;;22.00;99.90;;;;;;5093952;28;20466;-74
2023/07/09 01:20:47;;;;;;;12.48;7.18;;;22.00;99.90;;;;;;5093438;28;20130;-74
2023/07/09 01:23:12;;;;;;;8.13;7.32;;;22.00;99.90;;;;;;5093342;28;20028;-75
2023/07/09 01:25:54;;;;;;;10.90;7.25;;;22.00;99.90;;;;;;5093513;28;20460;-74
2023/07/09 01:28:20;;;;;;;9.57;7.30;;;21.90;99.90;;;;;;5093595;28;20064;-74
2023/07/09 01:30:53;;;;;;;9.80;7.78;;;21.90;99.90;;;;;;5093289;28;20047;-74
2023/07/09 01:33:18;;;;;;;8.67;7.33;;;21.90;99.90;;;;;;5093193;28;20032;-73
2023/07/09 01:35:44;;;;;;;11.23;7.80;;;21.90;99.90;;;;;;5093506;28;20661;-74
2023/07/09 01:38:09;;;;;;;8.73;7.40;;;21.90;99.90;;;;;;5079063;28;20043;-74
2023/07/09 01:40:36;;;;;;;9.98;7.70;;;21.90;99.90;;;;;;5088552;28;20394;-74
2023/07/09 01:43:06;;;;;;;10.75;7.60;;;21.80;99.90;;;;;;5092894;28;20032;-74
2023/07/09 01:45:33;;;;;;;8.63;7.72;;;21.80;99.90;;;;;;5093238;28;20051;-74
2023/07/09 01:47:58;;;;;;;9.65;7.45;;;21.80;99.90;;;;;;5076486;28;20581;-75
2023/07/09 01:50:26;;;;;;;10.35;6.75;;;21.70;99.90;;;;;;5075751;28;20040;-75
2023/07/09 01:52:53;;;;;;;8.88;7.30;;;21.60;99.90;;;;;;5092713;28;20064;-75
2023/07/09 01:55:19;;;;;;;9.65;7.18;;;21.70;99.90;;;;;;5092852;28;20063;-74
2023/07/09 01:57:45;;;;;;;8.13;7.10;;;21.50;99.90;;;;;;5092753;28;20075;-74
2023/07/09 02:00:13;;;;;;;9.48;7.80;;;21.50;99.90;;;;;;5092709;28;20043;-74
2023/07/09 02:02:43;;;;;;;8.48;7.60;;;21.40;99.90;;;;;;5092406;28;20118;-74
2023/07/09 02:05:10;;;;;;;10.63;7.72;;;21.30;99.90;;;;;;5091010;28;20081;-74
2023/07/09 02:07:35;;;;;;;9.13;7.70;;;21.30;99.90;;;;;;5091218;28;20036;-75
2023/07/09 02:10:01;;;;;;;9.52;7.47;;;21.20;99.90;;;;;;5091530;28;20510;-74
2023/07/09 02:12:27;;;;;;;9.38;6.93;;;21.20;99.90;;;;;;5091962;28;20057;-74
2023/07/09 02:14:52;;;;;;;9.50;7.43;;;21.20;99.90;;;;;;5091936;28;20511;-74
2023/07/09 02:17:18;;;;;;;8.90;7.20;;;21.20;99.90;;;;;;5092088;28;20044;-75
2023/07/09 02:19:44;;;;;;;12.07;7.80;;;21.10;99.90;;;;;;5075335;28;20032;-75
2023/07/09 02:22:10;;;;;;;9.80;7.68;;;21.10;99.90;;;;;;5092585;28;20039;-74
2023/07/09 02:24:36;;;;;;;11.50;8.20;;;21.10;99.90;;;;;;5085345;28;20032;-75
2023/07/09 02:27:05;;;;;;;10.25;7.95;;;21.10;99.90;;;;;;5092180;28;20050;-75
2023/07/09 02:29:31;;;;;;;9.02;7.30;;;21.00;99.90;;;;;;5092502;28;20403;-75
2023/07/09 02:31:58;;;;;;;8.40;7.50;;;20.90;99.90;;;;;;5092070;28;20535;-74
2023/07/09 02:34:25;;;;;;;10.13;7.70;;;20.90;99.90;;;;;;5091828;28;20043;-74
2023/07/09 02:36:56;;;;;;;15.40;8.52;;;20.90;99.90;;;;;;5075115;28;20119;-75
2023/07/09 02:39:22;;;;;;;9.90;7.40;;;20.90;99.90;;;;;;5092303;28;20036;-74
2023/07/09 02:41:48;;;;;;;7.82;7.03;;;20.80;99.90;;;;;;5091924;28;20050;-74
2023/07/09 02:44:14;;;;;;;8.55;7.60;;;20.80;99.90;;;;;;5075112;28;20115;-74
2023/07/09 02:46:40;;;;;;;8.93;7.38;;;20.80;99.90;;;;;;5091835;28;20040;-74
2023/07/09 02:49:07;;;;;;;11.60;8.02;;;20.70;99.90;;;;;;5068081;28;20090;-74
2023/07/09 02:51:33;;;;;;;9.88;7.35;;;20.70;99.90;;;;;;5091626;28;20059;-75
2023/07/09 02:54:01;;;;;;;9.07;7.22;;;20.70;99.90;;;;;;5074733;28;20419;-74
2023/07/09 02:56:27;;;;;;;10.57;7.78;;;20.70;99.90;;;;;;5091762;28;20043;-74
2023/07/09 02:58:53;;;;;;;9.70;7.60;;;20.70;99.90;;;;;;5092035;28;20032;-75
2023/07/09 03:01:24;;;;;;;8.77;7.38;;;20.70;99.90;;;;;;5074744;28;20034;-74
2023/07/09 03:03:52;;;;;;;8.20;7.20;;;20.70;99.90;;;;;;5074411;28;20532;-74
2023/07/09 03:06:19;;;;;;;8.88;7.25;;;20.70;99.90;;;;;;5091556;28;20058;-74
2023/07/09 03:08:44;;;;;;;9.57;7.25;;;20.70;99.90;;;;;;5091455;28;20036;-74
2023/07/09 03:11:11;;;;;;;10.65;7.43;;;20.70;99.90;;;;;;5091345;28;20092;-74
2023/07/09 03:13:37;;;;;;;10.57;7.70;;;20.70;99.90;;;;;;5091000;28;20073;-74
2023/07/09 03:16:03;;;;;;;9.52;7.75;;;20.70;99.90;;;;;;5091303;28;20032;-75
2023/07/09 03:18:28;;;;;;;9.02;7.35;;;20.70;99.90;;;;;;5091213;28;20403;-74
2023/07/09 03:20:54;;;;;;;10.25;7.10;;;20.70;99.90;;;;;;5074229;28;20032;-75
2023/07/09 03:23:19;;;;;;;11.45;7.70;;;20.70;99.90;;;;;;5091071;28;20064;-74
2023/07/09 03:25:45;;;;;;;11.60;7.40;;;20.70;99.90;;;;;;5091045;28;20120;-75
2023/07/09 03:28:12;;;;;;;8.52;7.47;;;20.60;99.90;;;;;;5091380;28;20043;-74
2023/07/09 03:30:45;;;;;;;10.27;7.05;;;20.60;99.90;;;;;;5090604;28;20044;-74
2023/07/09 03:33:11;;;;;;;11.18;8.02;;;20.60;99.90;;;;;;5090561;28;20044;-74
2023/07/09 03:35:38;;;;;;;9.48;7.57;;;20.60;99.90;;;;;;5090728;28;20040;-75
2023/07/09 03:38:05;;;;;;;8.68;7.70;;;20.60;99.90;;;;;;5090964;28;20087;-75
2023/07/09 03:40:30;;;;;;;9.40;7.80;;;20.60;99.90;;;;;;5092371;28;20147;-75
2023/07/09 03:42:56;;;;;;;8.88;7.45;;;20.50;99.90;;;;;;5090869;28;20111;-75
2023/07/09 03:45:22;;;;;;;13.00;7.70;;;20.60;99.90;;;;;;5090672;28;20081;-74
2023/07/09 03:47:47;;;;;;;8.43;7.53;;;20.60;99.90;;;;;;5090687;28;20047;-75
2023/07/09 03:50:13;;;;;;;10.18;7.55;;;20.50;99.90;;;;;;5090510;28;20044;-74
2023/07/09 03:52:38;;;;;;;9.63;7.82;;;20.50;99.90;;;;;;5090507;28;20132;-75
2023/07/09 03:55:04;;;;;;;8.50;7.40;;;20.50;99.90;;;;;;5090561;28;20043;-74
2023/07/09 03:57:31;;;;;;;10.18;8.10;;;20.50;99.90;;;;;;5090634;28;20032;-75
2023/07/09 03:59:56;;;;;;;10.27;8.13;;;20.50;99.90;;;;;;5090793;28;20373;-75
2023/07/09 04:02:22;;;;;;;9.07;7.43;;;20.50;99.90;;;;;;5073727;28;20079;-75
2023/07/09 04:04:47;;;;;;;10.57;7.70;;;20.50;99.90;;;;;;5090377;28;20044;-75
2023/07/09 04:07:13;;;;;;;9.77;7.45;;;20.50;99.90;;;;;;5090583;28;20039;-75
2023/07/09 04:09:39;;;;;;;9.32;7.93;;;20.50;99.90;;;;;;5090328;28;20055;-75
2023/07/09 04:12:05;;;;;;;11.30;7.30;;;20.50;99.90;;;;;;5073613;28;20044;-75
2023/07/09 04:14:31;;;;;;;10.95;7.13;;;20.50;99.90;;;;;;5090001;28;20036;-75
2023/07/09 04:16:57;;;;;;;8.38;7.47;;;20.50;99.90;;;;;;5090271;28;20032;-75
2023/07/09 04:19:23;;;;;;;10.40;7.45;;;20.60;99.90;;;;;;5073321;28;20036;-75
2023/07/09 04:21:49;;;;;;;8.57;6.90;;;20.70;99.90;;;;;;5089844;28;20485;-75
2023/07/09 04:24:16;;;;;;;8.57;7.15;;;20.70;99.90;;;;;;5084738;28;20032;-74
2023/07/09 04:26:42;;;;;;;9.48;7.13;;;20.80;99.90;;;;;;5090250;28;20051;-74
2023/07/09 04:29:08;;;;;;;7.57;6.78;;;20.80;99.90;;;;;;5090276;28;20032;-74
2023/07/09 04:31:33;;;;;;;9.23;6.95;;;20.90;99.90;;;;;;5081812;28;20043;-73
2023/07/09 04:33:59;;;;;;;8.40;7.50;;;20.90;99.90;;;;;;5089617;28;20101;-75
2023/07/09 04:36:26;;;;;;;8.48;7.57;;;21.00;99.90;;;;;;5089961;28;20042;-74
2023/07/09 04:38:51;;;;;;;9.25;6.72;;;21.00;99.90;;;;;;5090110;28;20199;-75
2023/07/09 04:41:17;;;;;;;8.13;6.63;;;21.10;99.90;;;;;;5089989;28;20078;-75
2023/07/09 04:43:43;;;;;;;9.90;7.60;;;21.20;99.90;;;;;;5089164;28;20467;-74
2023/07/09 04:46:08;;;;;;;8.82;7.10;;;21.20;99.90;;;;;;5081114;28;20032;-74
2023/07/09 04:48:34;;;;;;;8.60;7.28;;;21.30;99.90;;;;;;5089643;28;20036;-74
2023/07/09 04:50:59;;;;;;;10.88;7.20;;;21.30;99.90;;;;;;5090063;28;20111;-75
2023/07/09 04:53:25;;;;;;;9.35;7.13;;;21.40;99.90;;;;;;5089732;28;20036;-74
2023/07/09 04:55:51;;;;;;;8.32;6.82;;;21.40;99.90;;;;;;5089510;28;20052;-74
2023/07/09 04:58:18;;;;;;;8.98;7.20;;;21.50;99.90;;;;;;5089646;28;20047;-74
2023/07/09 05:00:43;;;;;;;9.00;7.25;;;21.60;99.90;;;;;;5089547;28;20075;-74
2023/07/09 05:03:09;;;;;;;8.68;7.22;;;21.70;99.90;;;;;;5072541;28;20059;-74
2023/07/09 05:05:35;;;;;;;9.15;7.22;;;21.60;99.90;;;;;;5089281;28;20040;-75
2023/07/09 05:08:01;;;;;;;8.25;6.88;;;21.70;99.90;;;;;;5089564;28;20032;-74
2023/07/09 05:10:26;;;;;;;12.43;7.30;;;21.70;99.90;;;;;;5081785;28;20078;-74
2023/07/09 05:12:54;;;;;;;8.18;7.20;;;21.80;99.90;;;;;;5089066;28;20078;-75
2023/07/09 05:15:21;;;;;;;8.73;7.22;;;21.80;99.90;;;;;;5089517;28;20043;-74
2023/07/09 05:17:47;;;;;;;8.27;7.05;;;21.90;99.90;;;;;;5089433;28;20590;-74
2023/07/09 05:20:14;;;;;;;8.80;7.03;;;22.00;99.90;;;;;;5089553;28;20119;-74
2023/07/09 05:22:40;;;;;;;14.35;7.43;;;22.00;99.90;;;;;;5072300;28;20036;-74
2023/07/09 05:25:06;;;;;;;9.43;7.25;;;22.10;99.90;;;;;;5089777;28;20036;-75
2023/07/09 05:27:32;;;;;;;10.27;7.95;;;22.20;99.90;;;;;;5088994;28;20040;-74
2023/07/09 05:29:58;;;;;;;12.02;6.93;;;22.20;99.90;;;;;;5089374;28;20040;-75
2023/07/09 05:32:23;;;;;;;12.63;7.40;;;22.30;99.90;;;;;;5089294;28;20051;-74
2023/07/09 05:34:49;;;;;;;10.48;7.32;;;22.30;99.90;;;;;;5087928;28;20537;-73
2023/07/09 05:37:14;;;;;;;10.40;7.80;;;22.40;99.90;;;;;;5082355;28;20523;-74
2023/07/09 05:39:40;;;;;;;11.55;7.70;;;22.50;99.90;;;;;;5086454;28;20490;-75
2023/07/09 05:42:07;;;;;;;9.25;7.05;;;22.60;99.90;;;;;;5089235;28;20040;-74
2023/07/09 05:44:32;;;;;;;10.00;6.88;;;22.70;99.90;;;;;;5085264;28;20054;-74
2023/07/09 05:46:58;;;;;;;10.13;7.65;;;22.90;99.90;;;;;;5072422;28;20036;-74
2023/07/09 05:49:23;;;;;;;8.65;7.55;;;23.00;99.90;;;;;;5080425;28;20040;-74
2023/07/09 05:51:49;;;;;;;12.48;7.78;;;23.10;99.90;;;;;;5088284;28;20518;-74
2023/07/09 05:54:14;;;;;;;8.63;7.18;;;23.10;99.90;;;;;;5087950;28;20033;-74
2023/07/09 05:56:40;;;;;;;9.05;7.25;;;23.10;99.90;;;;;;5088695;28;20044;-74
2023/07/09 05:59:05;;;;;;;10.50;7.53;;;23.10;99.90;;;;;;5084158;28;20032;-74
2023/07/09 06:01:32;;;;;;;11.35;7.88;;;23.10;99.90;;;;;;5088294;28;20398;-74
2023/07/09 06:03:57;;;;;;;10.07;7.47;;;23.10;99.90;;;;;;5081328;28;20043;-74
2023/07/09 06:06:23;;;;;;;13.52;7.68;;;23.10;99.90;;;;;;5084201;28;20072;-74
2023/07/09 06:08:50;;;;;;;10.25;8.13;;;23.00;99.90;;;;;;5084312;28;20075;-76
2023/07/09 06:11:17;;;;;;;9.85;7.63;;;22.90;99.90;;;;;;5085942;28;20040;-74
2023/07/09 06:13:43;;;;;;;11.68;7.93;;;22.80;99.90;;;;;;5089200;28;20169;-75
2023/07/09 06:16:09;;;;;;;12.70;7.80;;;22.90;99.90;;;;;;5088909;28;20122;-74
2023/07/09 06:18:35;;;;;;;10.45;7.43;;;22.90;99.90;;;;;;5091627;28;20157;-74
2023/07/09 06:21:02;;;;;;;10.15;7.68;;;23.00;99.90;;;;;;5089314;28;20031;-74
2023/07/09 06:23:29;;;;;;;10.52;8.05;;;23.10;99.90;;;;;;5092267;28;20438;-74
2023/07/09 06:25:54;;;;;;;11.77;7.95;;;23.20;99.90;;;;;;5083996;28;20048;-74
2023/07/09 06:28:23;;;;;;;8.80;7.90;;;23.30;99.90;;;;;;5092143;28;20032;-74
2023/07/09 06:30:49;;;;;;;11.52;7.60;;;23.50;99.90;;;;;;5092006;28;20044;-74
2023/07/09 06:33:16;;;;;;;11.32;8.20;;;23.80;99.90;;;;;;5091605;28;20035;-74
2023/07/09 06:35:59;;;;;;;9.98;8.05;;;24.00;99.90;;;;;;5092061;28;20044;-74
2023/07/09 06:38:25;;;;;;;13.30;8.30;;;24.20;99.90;;;;;;5088421;28;20028;-74
2023/07/09 06:40:52;;;;;;;11.05;8.07;;;24.40;99.90;;;;;;5091796;28;20077;-75
2023/07/09 06:43:18;;;;;;;11.60;8.13;;;24.50;99.90;;;;;;5091597;28;20035;-74
2023/07/09 06:45:52;;;;;;;9.27;7.93;;;24.60;99.90;;;;;;5092071;28;20061;-75
2023/07/09 06:48:17;;;;;;;8.55;7.40;;;24.70;99.90;;;;;;5092077;28;20032;-75
2023/07/09 06:50:43;;;;;;;11.63;7.22;;;24.80;99.90;;;;;;5075194;28;20036;-74
2023/07/09 06:53:09;;;;;;;10.00;7.93;;;24.90;99.90;;;;;;5073939;28;20046;-74
2023/07/09 06:55:35;;;;;;;10.00;7.05;;;24.90;99.90;;;;;;5090309;28;20044;-74
2023/07/09 06:58:00;;;;;;;11.27;8.32;;;25.00;99.90;;;;;;5091144;28;20051;-74
2023/07/09 07:00:26;;;;;;;10.82;7.88;;;25.10;99.90;;;;;;5091221;28;20044;-74
2023/07/09 07:02:52;;;;;;;10.15;7.75;;;25.20;99.90;;;;;;5088357;28;20043;-74
2023/07/09 07:05:18;;;;;;;11.18;7.80;;;25.20;99.90;;;;;;5087881;28;20046;-75
2023/07/09 07:07:44;;;;;;;14.93;7.43;;;25.30;99.90;;;;;;5087269;28;20395;-74
2023/07/09 07:10:10;;;;;;;10.50;7.88;;;25.40;99.90;;;;;;5087554;28;20032;-75
2023/07/09 07:12:44;;;;;;;10.13;7.32;;;25.60;99.90;;;;;;5086742;28;20461;-74
2023/07/09 07:15:11;;;;;;;9.65;7.40;;;25.80;99.90;;;;;;5087708;28;20059;-75
2023/07/09 07:17:37;;;;;;;11.27;7.05;;;26.00;99.90;;;;;;5087982;28;20272;-74
2023/07/09 07:20:03;;;;;;;11.75;7.43;;;26.20;99.90;;;;;;5089323;28;20035;-75
2023/07/09 07:22:28;;;;;;;10.15;7.57;;;26.40;99.90;;;;;;5091004;28;20449;-75
2023/07/09 07:24:54;;;;;;;11.80;7.65;;;26.40;99.90;;;;;;5073971;28;20036;-75
2023/07/09 07:27:19;;;;;;;43.42;14.60;;;26.40;99.90;;;;;;5091603;28;20462;-74
2023/07/09 07:29:45;;;;;;;11.65;7.78;;;26.50;99.90;;;;;;5092242;28;20097;-74
2023/07/09 07:32:11;;;;;;;10.65;7.47;;;26.50;99.90;;;;;;5090826;28;20115;-73
2023/07/09 07:34:36;;;;;;;11.32;7.40;;;26.50;99.90;;;;;;5090839;28;20071;-74
2023/07/09 07:37:02;;;;;;;9.70;7.00;;;26.50;99.90;;;;;;5090190;28;20464;-74
2023/07/09 07:39:28;;;;;;;13.10;7.60;;;26.40;99.90;;;;;;5073967;28;20035;-73
2023/07/09 07:41:55;;;;;;;9.85;6.88;;;26.50;99.90;;;;;;5074079;28;20403;-73
2023/07/09 07:44:20;;;;;;;10.13;6.75;;;26.40;99.90;;;;;;5091056;28;20425;-74
2023/07/09 07:46:46;;;;;;;10.77;6.68;;;26.40;99.90;;;;;;5090963;28;20123;-73
2023/07/09 07:49:11;;;;;;;13.32;7.28;;;26.50;99.90;;;;;;5085437;28;20078;-73
2023/07/09 07:51:38;;;;;;;8.18;6.82;;;26.60;99.90;;;;;;5088193;28;20122;-73
2023/07/09 07:54:04;;;;;;;10.18;7.18;;;26.80;99.90;;;;;;5077442;28;20440;-74
2023/07/09 07:56:29;;;;;;;9.18;6.97;;;27.00;99.90;;;;;;5089709;28;20127;-74
2023/07/09 07:58:55;;;;;;;9.13;6.15;;;27.10;99.90;;;;;;5087565;28;20043;-73
2023/07/09 08:01:20;;;;;;;10.05;6.80;;;27.20;99.90;;;;;;5087836;28;20047;-73
2023/07/09 08:03:46;;;;;;;9.73;6.18;;;27.50;99.90;;;;;;5088322;28;20043;-74
2023/07/09 08:06:12;;;;;;;10.18;6.90;;;27.60;99.90;;;;;;5088520;28;20028;-73
2023/07/09 08:08:37;;;;;;;9.20;6.93;;;27.80;99.90;;;;;;5064944;28;20048;-73
2023/07/09 08:11:07;;;;;;;9.93;6.70;;;27.90;99.90;;;;;;5088365;28;20512;-73
2023/07/09 08:13:37;;;;;;;10.57;7.22;;;27.90;99.90;;;;;;5089324;28;20077;-73
2023/07/09 08:16:04;;;;;;;10.25;6.60;;;28.10;99.90;;;;;;5073060;28;20032;-73
2023/07/09 08:18:29;;;;;;;14.05;7.65;;;28.10;99.90;;;;;;5082294;28;20033;-73
2023/07/09 08:20:55;;;;;;;15.60;7.50;;;28.20;99.90;;;;;;5090404;28;20028;-73
2023/07/09 08:23:21;;;;;;;9.02;6.50;;;28.30;99.90;;;;;;5089897;28;20050;-73
2023/07/09 08:25:54;;;;;;;11.20;7.53;;;28.40;99.90;;;;;;5088031;28;20052;-73
2023/07/09 08:28:19;;;;;;;12.18;7.28;;;28.40;99.90;;;;;;5085690;28;20511;-73
2023/07/09 08:30:45;;;;;;;10.85;6.95;;;28.50;99.90;;;;;;5090661;28;20067;-73
2023/07/09 08:33:10;;;;;;;11.30;7.50;;;28.50;99.90;;;;;;5090307;28;20078;-72
2023/07/09 08:35:36;;;;;;;12.40;7.45;;;28.60;99.90;;;;;;5091576;28;20123;-73
2023/07/09 08:38:01;;;;;;;8.50;6.95;;;28.60;99.90;;;;;;5073446;28;20099;-73
2023/07/09 08:40:27;;;;;;;12.75;7.63;;;28.60;99.90;;;;;;5090029;28;20411;-74
2023/07/09 08:43:10;;;;;;;10.85;8.32;;;28.70;99.90;;;;;;5089587;28;20488;-73
2023/07/09 08:46:00;;;;;;;13.15;8.02;;;28.80;99.90;;;;;;5068995;28;20036;-72
2023/07/09 08:48:32;;;;;;;11.05;8.15;;;28.90;99.90;;;;;;5073260;28;20040;-72
2023/07/09 08:51:03;;;;;;;12.35;8.40;;;28.90;99.90;;;;;;5089989;28;20151;-72
2023/07/09 08:53:36;;;;;;;10.25;7.57;;;28.90;99.90;;;;;;5089505;28;20047;-73
2023/07/09 08:56:02;;;;;;;10.00;8.15;;;29.10;99.90;;;;;;5082428;28;20048;-73
2023/07/09 08:58:32;;;;;;;13.95;8.18;;;29.20;99.90;;;;;;5090269;28;20040;-73
2023/07/09 09:01:12;;;;;;;11.50;8.13;;;29.30;99.90;;;;;;5088068;28;20691;-73
2023/07/09 09:03:50;;;;;;;11.48;8.85;;;29.30;99.90;;;;;;5088334;28;20123;-73
2023/07/09 09:06:22;;;;;;;12.30;9.55;;;29.20;99.90;;;;;;5084483;28;20047;-73
2023/07/09 09:09:19;;;;;;;12.07;8.35;;;29.10;99.90;;;;;;5089388;28;20044;-72
2023/07/09 09:11:56;;;;;;;10.23;8.88;;;29.20;99.90;;;;;;5085199;28;20032;-73
2023/07/09 09:14:38;;;;;;;12.15;9.13;;;29.20;99.90;;;;;;5088063;28;20048;-72
2023/07/09 09:17:20;;;;;;;12.60;9.10;;;29.20;99.90;;;;;;5082314;28;20113;-73
2023/07/09 09:19:54;;;;;;;12.00;8.93;;;29.30;99.90;;;;;;5089771;28;20040;-72
2023/07/09 09:22:24;;;;;;;17.80;10.00;;;29.10;99.90;;;;;;5072435;28;20036;-73
2023/07/09 09:25:14;;;;;;;12.30;10.18;;;29.20;99.90;;;;;;5090707;28;20059;-74
2023/07/09 09:27:39;;;;;;;13.25;10.60;;;29.20;99.90;;;;;;5087334;28;20073;-73
2023/07/09 09:30:14;;;;;;;13.65;10.55;;;29.10;99.90;;;;;;5089346;28;20148;-73
2023/07/09 09:32:46;;;;;;;12.68;10.20;;;29.20;99.90;;;;;;5093102;28;20036;-73
2023/07/09 09:35:16;;;;;;;12.47;10.33;;;29.10;99.90;;;;;;5093162;28;20165;-73
2023/07/09 09:37:50;;;;;;;13.93;11.02;;;29.00;99.90;;;;;;5092886;28;20292;-73
2023/07/09 09:40:21;;;;;;;14.65;10.95;;;28.90;99.90;;;;;;5091225;28;20044;-73
2023/07/09 09:42:47;;;;;;;18.23;11.32;;;28.70;99.90;;;;;;5090976;28;20032;-73
2023/07/09 09:45:16;;;;;;;13.75;11.02;;;28.80;99.90;;;;;;5093203;28;20420;-74
2023/07/09 09:47:44;;;;;;;13.10;10.95;;;28.70;99.90;;;;;;5093012;28;20119;-73
2023/07/09 09:50:14;;;;;;;15.55;10.30;;;28.70;99.90;;;;;;5093038;28;20116;-73
2023/07/09 09:52:40;;;;;;;10.77;9.15;;;28.70;99.90;;;;;;5092441;28;20048;-72
2023/07/09 09:55:22;;;;;;;11.77;9.88;;;29.00;99.90;;;;;;5091833;28;20093;-73
2023/07/09 09:57:50;;;;;;;15.30;10.80;;;29.10;99.90;;;;;;5076005;28;20036;-74
2023/07/09 10:00:16;;;;;;;14.48;12.32;;;29.20;99.90;;;;;;5092903;28;20043;-74
2023/07/09 10:02:45;;;;;;;16.38;11.93;;;29.20;99.90;;;;;;5092666;28;20111;-73
2023/07/09 10:05:15;;;;;;;14.93;11.27;;;29.20;99.90;;;;;;5092582;28;20050;-74
2023/07/09 10:07:56;;;;;;;15.90;12.18;;;29.20;99.90;;;;;;5093074;28;20063;-74
2023/07/09 10:10:28;;;;;;;13.80;10.73;;;29.30;99.90;;;;;;5088535;28;20344;-74
2023/07/09 10:13:01;;;;;;;12.93;10.10;;;29.30;99.90;;;;;;5092335;28;20054;-74
2023/07/09 10:15:47;;;;;;;12.15;10.45;;;29.50;99.90;;;;;;5089916;28;20040;-73
2023/07/09 10:18:15;;;;;;;12.82;10.40;;;29.40;99.90;;;;;;5092452;28;20107;-74
2023/07/09 10:20:48;;;;;;;11.45;9.82;;;29.40;99.90;;;;;;5092428;28;20047;-74
2023/07/09 10:23:28;;;;;;;13.73;10.18;;;29.50;99.90;;;;;;5092448;28;20123;-74
2023/07/09 10:26:16;;;;;;;12.27;10.38;;;29.50;99.90;;;;;;5092584;28;20046;-73
2023/07/09 10:29:17;;;;;;;14.60;9.32;;;29.60;99.90;;;;;;5075600;28;20040;-74
2023/07/09 10:31:45;;;;;;;11.32;9.35;;;29.60;99.90;;;;;;5071102;28;20079;-73
2023/07/09 10:34:40;;;;;;;11.65;9.15;;;29.70;99.90;;;;;;5091618;28;20093;-73
2023/07/09 10:37:20;;;;;;;11.63;9.60;;;29.90;99.90;;;;;;5092494;28;20098;-73
2023/07/09 10:39:52;;;;;;;12.30;9.30;;;30.00;99.90;;;;;;5075359;28;20399;-74
2023/07/09 10:42:48;;;;;;;14.73;11.60;;;30.10;99.90;;;;;;5092054;28;20035;-73
2023/07/09 10:45:20;;;;;;;12.35;9.18;;;30.20;99.90;;;;;;5086291;28;20048;-73
2023/07/09 10:47:53;;;;;;;13.55;9.40;;;30.30;99.90;;;;;;5093252;28;20040;-74
2023/07/09 10:50:30;;;;;;;14.73;8.77;;;30.40;99.90;;;;;;5091989;28;20484;-74
2023/07/09 10:53:01;;;;;;;12.93;9.40;;;30.70;99.90;;;;;;5066589;28;20032;-73
2023/07/09 10:55:52;;;;;;;14.13;9.80;;;30.70;99.90;;;;;;5091704;28;20131;-73
2023/07/09 10:58:35;;;;;;;11.80;8.55;;;30.60;99.90;;;;;;5094603;28;20051;-73
2023/07/09 11:01:01;;;;;;;12.63;9.70;;;30.80;99.90;;;;;;5084246;28;20055;-73
2023/07/09 11:04:02;;;;;;;12.15;9.18;;;31.00;99.90;;;;;;5091587;28;20055;-74
2023/07/09 11:06:38;;;;;;;13.20;9.55;;;31.20;99.90;;;;;;5077010;28;20044;-74
2023/07/09 11:09:16;;;;;;;14.77;8.50;;;31.40;99.90;;;;;;5084512;28;20031;-74
2023/07/09 11:11:48;;;;;;;11.98;8.05;;;31.50;99.90;;;;;;5091422;28;20055;-74
2023/07/09 11:14:34;;;;;;;10.02;8.82;;;31.80;99.90;;;;;;5091142;28;20040;-74
2023/07/09 11:17:00;;;;;;;12.25;8.48;;;31.90;99.90;;;;;;5083792;28;20044;-74
2023/07/09 11:19:26;;;;;;;13.20;7.85;;;31.90;99.90;;;;;;5074630;28;20040;-73
2023/07/09 11:22:20;;;;;;;10.70;8.05;;;31.80;99.70;;;;;;5091404;28;20050;-74
2023/07/09 11:25:05;;;;;;;14.85;9.10;;;32.00;99.40;;;;;;5092413;28;20089;-73
2023/07/09 11:27:31;;;;;;;9.85;8.20;;;32.00;99.20;;;;;;5091364;28;20036;-74
2023/07/09 11:30:02;;;;;;;14.18;7.53;;;31.80;99.20;;;;;;5091038;28;20514;-74
2023/07/09 11:32:29;;;;;;;9.77;8.07;;;32.00;99.40;;;;;;5090880;28;20035;-74
2023/07/09 11:35:07;;;;;;;10.85;8.40;;;32.20;99.50;;;;;;5090693;28;20044;-74
2023/07/09 11:37:44;;;;;;;13.20;8.45;;;32.20;99.00;;;;;;5092134;28;20088;-74
2023/07/09 11:40:13;;;;;;;10.23;8.32;;;32.20;98.30;;;;;;5090916;28;20032;-74
2023/07/09 11:42:52;;;;;;;10.50;8.10;;;32.40;98.70;;;;;;5089906;28;20044;-75
2023/07/09 11:45:28;;;;;;;10.10;8.00;;;32.50;98.60;;;;;;5073693;28;20040;-74
2023/07/09 11:48:39;;;;;;;9.60;8.13;;;32.80;98.90;;;;;;5090625;28;20043;-74
2023/07/09 11:51:15;;;;;;;9.48;8.48;;;32.70;98.60;;;;;;5086285;28;20051;-74
2023/07/09 11:53:50;;;;;;;11.57;8.30;;;32.70;98.30;;;;;;5087762;28;20036;-74
2023/07/09 11:56:19;;;;;;;9.10;7.80;;;32.70;98.20;;;;;;5090295;28;20031;-74
2023/07/09 11:58:58;;;;;;;12.05;8.23;;;32.80;98.70;;;;;;5073936;28;20635;-74
2023/07/09 12:01:36;;;;;;;9.68;7.65;;;32.80;98.30;;;;;;5065732;28;20035;-73
2023/07/09 12:04:03;;;;;;;12.63;7.90;;;33.00;98.30;;;;;;5090363;28;20399;-74
2023/07/09 12:06:32;;;;;;;10.38;8.40;;;33.10;98.00;;;;;;5091567;28;20031;-75
2023/07/09 12:08:58;;;;;;;11.50;7.80;;;32.80;97.80;;;;;;5090280;28;20122;-74
2023/07/09 12:11:34;;;;;;;10.13;7.30;;;32.70;97.70;;;;;;5089915;28;20503;-75
2023/07/09 12:14:11;;;;;;;8.57;6.82;;;32.50;97.80;;;;;;5063941;28;20036;-75
2023/07/09 12:16:46;;;;;;;7.82;6.78;;;32.60;98.30;;;;;;5089461;28;20044;-75
2023/07/09 12:19:13;;;;;;;11.68;7.05;;;32.80;98.10;;;;;;5089940;28;20032;-75
2023/07/09 12:21:46;;;;;;;9.38;7.22;;;32.80;97.90;;;;;;5066517;28;20044;-74
2023/07/09 12:24:22;;;;;;;;;;;32.80;97.50;;;;;;5084803;28;20028;-76
2023/07/09 12:26:59;;;;;;;8.85;7.20;;;32.90;97.60;;;;;;5088387;28;20348;-74
2023/07/09 12:29:26;;;;;;;8.32;7.40;;;32.70;97.70;;;;;;5083967;28;20036;-74
2023/07/09 12:31:51;;;;;;;7.97;6.97;;;32.60;97.50;;;;;;5087923;28;20040;-75
2023/07/09 12:34:17;;;;;;;13.07;7.38;;;32.60;97.50;;;;;;5070769;28;20370;-75
2023/07/09 12:36:49;;;;;;;9.43;6.55;;;32.70;97.10;;;;;;5072325;28;20032;-75
2023/07/09 12:39:24;;;;;;;8.13;5.97;;;32.80;97.40;;;;;;5090026;28;20072;-75
2023/07/09 12:41:53;;;;;;;7.97;5.80;;;33.00;95.50;;;;;;5089882;28;20052;-75
2023/07/09 12:44:21;;;;;;;6.68;5.38;;;33.00;96.50;;;;;;5089716;28;20050;-76
2023/07/09 12:46:48;;;;;;;8.65;5.50;;;33.60;96.40;;;;;;5072909;28;20036;-75
2023/07/09 12:49:26;;;;;;;7.55;5.47;;;33.90;95.80;;;;;;5089825;28;20028;-76
2023/07/09 12:51:55;;;;;;;7.25;5.65;;;33.80;95.70;;;;;;5089412;28;20121;-76